sensor_id;sensor_type;location;lat;lon;timestamp;P1;durP1;ratioP1;P2;durP2;ratioP2
68097;SDS011;54886;47.036;15.466;2023-06-19T00:01:57;9.75;;;6.50;;
68097;SDS011;54886;47.036;15.466;2023-06-19T00:04:23;8.68;;;6.32;;
68097;SDS011;54886;47.036;15.466;2023-06-19T00:06:48;12.55;;;6.70;;
68097;SDS011;54886;47.036;15.466;2023-06-19T00:09:14;10.07;;;6.78;;
68097;SDS011;54886;47.036;15.466;2023-06-19T00:11:39;10.73;;;6.80;;
68097;SDS011;54886;47.036;15.466;2023-06-19T00:14:05;10.98;;;7.25;;
68097;SDS011;54886;47.036;15.466;2023-06-19T00:16:30;9.48;;;6.63;;
68097;SDS011;54886;47.036;15.466;2023-06-19T00:18:56;10.27;;;6.97;;
68097;SDS011;54886;47.036;15.466;2023-06-19T00:21:22;9.75;;;6.90;;
68097;SDS011;54886;47.036;15.466;2023-06-19T00:23:49;9.27;;;6.97;;
68097;SDS011;54886;47.036;15.466;2023-06-19T00:26:15;9.48;;;6.60;;
68097;SDS011;54886;47.036;15.466;2023-06-19T00:28:40;10.30;;;7.10;;
68097;SDS011;54886;47.036;15.466;2023-06-19T00:31:08;10.15;;;7.07;;
68097;SDS011;54886;47.036;15.466;2023-06-19T00:33:34;9.88;;;7.13;;
68097;SDS011;54886;47.036;15.466;2023-06-19T00:35:59;11.32;;;7.32;;
68097;SDS011;54886;47.036;15.466;2023-06-19T00:38:26;9.43;;;6.43;;
68097;SDS011;54886;47.036;15.466;2023-06-19T00:40:51;9.98;;;6.85;;
68097;SDS011;54886;47.036;15.466;2023-06-19T00:43:17;9.88;;;6.80;;
68097;SDS011;54886;47.036;15.466;2023-06-19T00:45:42;9.00;;;6.45;;
68097;SDS011;54886;47.036;15.466;2023-06-19T00:48:08;9.75;;;6.88;;
68097;SDS011;54886;47.036;15.466;2023-06-19T00:50:33;9.50;;;7.00;;
68097;SDS011;54886;47.036;15.466;2023-06-19T00:52:59;10.38;;;7.10;;
68097;SDS011;54886;47.036;15.466;2023-06-19T00:55:28;9.95;;;7.13;;
68097;SDS011;54886;47.036;15.466;2023-06-19T01:00:20;9.55;;;6.88;;
68097;SDS011;54886;47.036;15.466;2023-06-19T01:02:46;11.27;;;7.03;;
68097;SDS011;54886;47.036;15.466;2023-06-19T01:05:12;8.80;;;6.70;;
68097;SDS011;54886;47.036;15.466;2023-06-19T01:10:13;9.60;;;6.80;;
68097;SDS011;54886;47.036;15.466;2023-06-19T01:12:44;12.55;;;7.25;;
68097;SDS011;54886;47.036;15.466;2023-06-19T01:15:17;11.45;;;6.88;;
68097;SDS011;54886;47.036;15.466;2023-06-19T01:17:43;9.38;;;6.60;;
68097;SDS011;54886;47.036;15.466;2023-06-19T01:20:10;11.93;;;6.60;;
68097;SDS011;54886;47.036;15.466;2023-06-19T01:22:36;9.63;;;7.22;;
68097;SDS011;54886;47.036;15.466;2023-06-19T01:25:02;10.10;;;7.22;;
68097;SDS011;54886;47.036;15.466;2023-06-19T01:27:30;11.05;;;7.00;;
68097;SDS011;54886;47.036;15.466;2023-06-19T01:29:59;9.85;;;6.90;;
68097;SDS011;54886;47.036;15.466;2023-06-19T01:32:31;9.75;;;6.68;;
68097;SDS011;54886;47.036;15.466;2023-06-19T01:35:07;11.95;;;6.93;;
68097;SDS011;54886;47.036;15.466;2023-06-19T01:37:35;10.23;;;6.93;;
68097;SDS011;54886;47.036;15.466;2023-06-19T01:42:29;9.73;;;7.10;;
68097;SDS011;54886;47.036;15.466;2023-06-19T01:44:54;9.55;;;6.57;;
68097;SDS011;54886;47.036;15.466;2023-06-19T01:47:20;9.90;;;6.80;;
68097;SDS011;54886;47.036;15.466;2023-06-19T01:49:46;10.90;;;6.93;;
68097;SDS011;54886;47.036;15.466;2023-06-19T01:52:12;11.65;;;6.78;;
68097;SDS011;54886;47.036;15.466;2023-06-19T01:54:38;9.43;;;6.60;;
68097;SDS011;54886;47.036;15.466;2023-06-19T01:57:04;10.23;;;7.35;;
68097;SDS011;54886;47.036;15.466;2023-06-19T01:59:29;9.90;;;6.75;;
68097;SDS011;54886;47.036;15.466;2023-06-19T02:01:54;10.68;;;7.10;;
68097;SDS011;54886;47.036;15.466;2023-06-19T02:04:20;9.52;;;6.93;;
68097;SDS011;54886;47.036;15.466;2023-06-19T02:06:45;8.98;;;6.72;;
68097;SDS011;54886;47.036;15.466;2023-06-19T02:09:11;11.52;;;6.85;;
68097;SDS011;54886;47.036;15.466;2023-06-19T02:11:36;9.65;;;7.10;;
68097;SDS011;54886;47.036;15.466;2023-06-19T02:14:01;10.25;;;7.10;;
68097;SDS011;54886;47.036;15.466;2023-06-19T02:16:27;10.38;;;6.78;;
68097;SDS011;54886;47.036;15.466;2023-06-19T02:18:52;9.07;;;6.40;;
68097;SDS011;54886;47.036;15.466;2023-06-19T02:21:17;11.40;;;7.25;;
68097;SDS011;54886;47.036;15.466;2023-06-19T02:23:43;9.85;;;7.43;;
68097;SDS011;54886;47.036;15.466;2023-06-19T02:26:08;10.50;;;6.80;;
68097;SDS011;54886;47.036;15.466;2023-06-19T02:28:33;11.32;;;7.05;;
68097;SDS011;54886;47.036;15.466;2023-06-19T02:30:59;11.65;;;6.85;;
68097;SDS011;54886;47.036;15.466;2023-06-19T02:33:24;10.75;;;7.43;;
68097;SDS011;54886;47.036;15.466;2023-06-19T02:35:50;9.73;;;6.60;;
68097;SDS011;54886;47.036;15.466;2023-06-19T02:38:15;11.68;;;7.03;;
68097;SDS011;54886;47.036;15.466;2023-06-19T02:40:40;11.10;;;6.43;;
68097;SDS011;54886;47.036;15.466;2023-06-19T02:43:06;11.18;;;7.30;;
68097;SDS011;54886;47.036;15.466;2023-06-19T02:45:31;10.60;;;6.97;;
68097;SDS011;54886;47.036;15.466;2023-06-19T02:47:56;11.77;;;7.43;;
68097;SDS011;54886;47.036;15.466;2023-06-19T02:50:22;12.00;;;7.82;;
68097;SDS011;54886;47.036;15.466;2023-06-19T02:52:47;9.45;;;6.75;;
68097;SDS011;54886;47.036;15.466;2023-06-19T02:55:13;11.02;;;7.28;;
68097;SDS011;54886;47.036;15.466;2023-06-19T02:57:38;10.27;;;7.72;;
68097;SDS011;54886;47.036;15.466;2023-06-19T03:00:04;11.43;;;7.43;;
68097;SDS011;54886;47.036;15.466;2023-06-19T03:02:34;10.90;;;7.32;;
68097;SDS011;54886;47.036;15.466;2023-06-19T03:04:59;10.82;;;7.43;;
68097;SDS011;54886;47.036;15.466;2023-06-19T03:07:25;11.02;;;7.10;;
68097;SDS011;54886;47.036;15.466;2023-06-19T03:09:53;9.88;;;7.03;;
68097;SDS011;54886;47.036;15.466;2023-06-19T03:12:19;10.07;;;7.38;;
68097;SDS011;54886;47.036;15.466;2023-06-19T03:14:44;10.55;;;7.53;;
68097;SDS011;54886;47.036;15.466;2023-06-19T03:17:09;11.18;;;7.05;;
68097;SDS011;54886;47.036;15.466;2023-06-19T03:19:35;11.57;;;7.50;;
68097;SDS011;54886;47.036;15.466;2023-06-19T03:22:00;11.48;;;7.32;;
68097;SDS011;54886;47.036;15.466;2023-06-19T03:24:25;10.63;;;7.18;;
68097;SDS011;54886;47.036;15.466;2023-06-19T03:26:51;13.20;;;7.97;;
68097;SDS011;54886;47.036;15.466;2023-06-19T03:29:16;10.52;;;7.55;;
68097;SDS011;54886;47.036;15.466;2023-06-19T03:31:42;10.77;;;7.60;;
68097;SDS011;54886;47.036;15.466;2023-06-19T03:34:07;10.80;;;7.40;;
68097;SDS011;54886;47.036;15.466;2023-06-19T03:36:32;11.00;;;7.80;;
68097;SDS011;54886;47.036;15.466;2023-06-19T03:38:58;12.38;;;7.30;;
68097;SDS011;54886;47.036;15.466;2023-06-19T03:41:23;13.45;;;7.65;;
68097;SDS011;54886;47.036;15.466;2023-06-19T03:43:49;11.57;;;7.65;;
68097;SDS011;54886;47.036;15.466;2023-06-19T03:46:14;12.13;;;7.80;;
68097;SDS011;54886;47.036;15.466;2023-06-19T03:48:39;12.55;;;7.90;;
68097;SDS011;54886;47.036;15.466;2023-06-19T03:51:05;11.73;;;7.55;;
68097;SDS011;54886;47.036;15.466;2023-06-19T03:53:31;13.15;;;7.85;;
68097;SDS011;54886;47.036;15.466;2023-06-19T03:55:56;12.35;;;7.38;;
68097;SDS011;54886;47.036;15.466;2023-06-19T03:58:21;11.43;;;7.28;;
68097;SDS011;54886;47.036;15.466;2023-06-19T04:00:47;9.68;;;7.10;;
68097;SDS011;54886;47.036;15.466;2023-06-19T04:03:12;11.18;;;7.85;;
68097;SDS011;54886;47.036;15.466;2023-06-19T04:05:37;11.27;;;8.00;;
68097;SDS011;54886;47.036;15.466;2023-06-19T04:08:04;12.70;;;7.88;;
68097;SDS011;54886;47.036;15.466;2023-06-19T04:10:29;12.52;;;7.85;;
68097;SDS011;54886;47.036;15.466;2023-06-19T04:12:55;11.07;;;7.40;;
68097;SDS011;54886;47.036;15.466;2023-06-19T04:15:20;9.77;;;7.50;;
68097;SDS011;54886;47.036;15.466;2023-06-19T04:17:46;11.20;;;8.13;;
68097;SDS011;54886;47.036;15.466;2023-06-19T04:20:12;12.60;;;7.40;;
68097;SDS011;54886;47.036;15.466;2023-06-19T04:22:37;10.95;;;7.97;;
68097;SDS011;54886;47.036;15.466;2023-06-19T04:25:04;13.65;;;8.27;;
68097;SDS011;54886;47.036;15.466;2023-06-19T04:29:57;11.95;;;7.60;;
68097;SDS011;54886;47.036;15.466;2023-06-19T04:32:23;11.73;;;8.03;;
68097;SDS011;54886;47.036;15.466;2023-06-19T04:34:48;15.25;;;8.75;;
68097;SDS011;54886;47.036;15.466;2023-06-19T04:37:14;13.00;;;8.48;;
68097;SDS011;54886;47.036;15.466;2023-06-19T04:39:44;11.55;;;8.23;;
68097;SDS011;54886;47.036;15.466;2023-06-19T04:42:10;13.60;;;8.40;;
68097;SDS011;54886;47.036;15.466;2023-06-19T04:44:35;12.48;;;8.20;;
68097;SDS011;54886;47.036;15.466;2023-06-19T04:47:00;12.85;;;8.25;;
68097;SDS011;54886;47.036;15.466;2023-06-19T04:49:29;11.57;;;7.93;;
68097;SDS011;54886;47.036;15.466;2023-06-19T04:51:55;12.38;;;8.07;;
68097;SDS011;54886;47.036;15.466;2023-06-19T04:54:21;12.27;;;8.55;;
68097;SDS011;54886;47.036;15.466;2023-06-19T04:56:47;12.27;;;8.07;;
68097;SDS011;54886;47.036;15.466;2023-06-19T04:59:12;16.23;;;9.07;;
68097;SDS011;54886;47.036;15.466;2023-06-19T05:01:42;13.50;;;8.00;;
68097;SDS011;54886;47.036;15.466;2023-06-19T05:04:08;11.70;;;7.85;;
68097;SDS011;54886;47.036;15.466;2023-06-19T05:06:35;11.77;;;8.10;;
68097;SDS011;54886;47.036;15.466;2023-06-19T05:09:01;14.18;;;8.05;;
68097;SDS011;54886;47.036;15.466;2023-06-19T05:11:26;13.88;;;8.48;;
68097;SDS011;54886;47.036;15.466;2023-06-19T05:13:52;12.65;;;8.65;;
68097;SDS011;54886;47.036;15.466;2023-06-19T05:16:17;12.10;;;8.43;;
68097;SDS011;54886;47.036;15.466;2023-06-19T05:18:44;11.60;;;8.27;;
68097;SDS011;54886;47.036;15.466;2023-06-19T05:21:10;14.43;;;8.50;;
68097;SDS011;54886;47.036;15.466;2023-06-19T05:23:35;12.90;;;7.93;;
68097;SDS011;54886;47.036;15.466;2023-06-19T05:26:01;14.15;;;8.27;;
68097;SDS011;54886;47.036;15.466;2023-06-19T05:28:26;12.77;;;8.05;;
68097;SDS011;54886;47.036;15.466;2023-06-19T05:30:51;17.38;;;8.40;;
68097;SDS011;54886;47.036;15.466;2023-06-19T05:33:17;11.77;;;7.80;;
68097;SDS011;54886;47.036;15.466;2023-06-19T05:35:42;13.13;;;8.30;;
68097;SDS011;54886;47.036;15.466;2023-06-19T05:38:08;16.35;;;8.70;;
68097;SDS011;54886;47.036;15.466;2023-06-19T05:40:34;14.13;;;8.88;;
68097;SDS011;54886;47.036;15.466;2023-06-19T05:42:59;14.88;;;8.52;;
68097;SDS011;54886;47.036;15.466;2023-06-19T05:45:26;12.80;;;8.55;;
68097;SDS011;54886;47.036;15.466;2023-06-19T05:47:52;13.77;;;8.48;;
68097;SDS011;54886;47.036;15.466;2023-06-19T05:50:17;16.30;;;8.50;;
68097;SDS011;54886;47.036;15.466;2023-06-19T05:52:42;14.15;;;8.05;;
68097;SDS011;54886;47.036;15.466;2023-06-19T05:55:08;11.77;;;8.45;;
68097;SDS011;54886;47.036;15.466;2023-06-19T05:57:35;12.95;;;8.07;;
68097;SDS011;54886;47.036;15.466;2023-06-19T06:00:00;15.13;;;9.30;;
68097;SDS011;54886;47.036;15.466;2023-06-19T06:02:25;13.90;;;8.93;;
68097;SDS011;54886;47.036;15.466;2023-06-19T06:07:18;13.63;;;8.35;;
68097;SDS011;54886;47.036;15.466;2023-06-19T06:09:44;15.30;;;8.52;;
68097;SDS011;54886;47.036;15.466;2023-06-19T06:12:09;14.02;;;8.38;;
68097;SDS011;54886;47.036;15.466;2023-06-19T06:14:34;13.73;;;8.63;;
68097;SDS011;54886;47.036;15.466;2023-06-19T06:17:00;13.82;;;8.20;;
68097;SDS011;54886;47.036;15.466;2023-06-19T06:19:25;15.20;;;8.77;;
68097;SDS011;54886;47.036;15.466;2023-06-19T06:21:51;15.95;;;8.93;;
68097;SDS011;54886;47.036;15.466;2023-06-19T06:24:16;16.35;;;9.15;;
68097;SDS011;54886;47.036;15.466;2023-06-19T06:26:41;13.27;;;8.27;;
68097;SDS011;54886;47.036;15.466;2023-06-19T06:29:07;15.45;;;9.07;;
68097;SDS011;54886;47.036;15.466;2023-06-19T06:31:33;15.18;;;8.82;;
68097;SDS011;54886;47.036;15.466;2023-06-19T06:33:59;16.65;;;9.57;;
68097;SDS011;54886;47.036;15.466;2023-06-19T06:36:24;14.55;;;8.35;;
68097;SDS011;54886;47.036;15.466;2023-06-19T06:38:50;14.02;;;8.93;;
68097;SDS011;54886;47.036;15.466;2023-06-19T06:41:15;13.77;;;9.00;;
68097;SDS011;54886;47.036;15.466;2023-06-19T06:43:40;18.00;;;8.90;;
68097;SDS011;54886;47.036;15.466;2023-06-19T06:46:08;15.85;;;8.55;;
68097;SDS011;54886;47.036;15.466;2023-06-19T06:48:33;15.30;;;9.32;;
68097;SDS011;54886;47.036;15.466;2023-06-19T06:50:59;17.05;;;9.20;;
68097;SDS011;54886;47.036;15.466;2023-06-19T06:53:26;13.35;;;8.77;;
68097;SDS011;54886;47.036;15.466;2023-06-19T06:55:57;14.43;;;8.45;;
68097;SDS011;54886;47.036;15.466;2023-06-19T07:00:49;14.88;;;9.10;;
68097;SDS011;54886;47.036;15.466;2023-06-19T07:03:16;14.80;;;8.85;;
68097;SDS011;54886;47.036;15.466;2023-06-19T07:05:41;13.45;;;8.43;;
68097;SDS011;54886;47.036;15.466;2023-06-19T07:08:07;13.35;;;8.70;;
68097;SDS011;54886;47.036;15.466;2023-06-19T07:10:32;13.40;;;8.63;;
68097;SDS011;54886;47.036;15.466;2023-06-19T07:12:58;14.20;;;8.57;;
68097;SDS011;54886;47.036;15.466;2023-06-19T07:15:23;14.80;;;8.70;;
68097;SDS011;54886;47.036;15.466;2023-06-19T07:17:48;13.90;;;8.60;;
68097;SDS011;54886;47.036;15.466;2023-06-19T07:20:14;13.73;;;8.70;;
68097;SDS011;54886;47.036;15.466;2023-06-19T07:22:40;12.68;;;8.68;;
68097;SDS011;54886;47.036;15.466;2023-06-19T07:25:06;15.63;;;8.68;;
68097;SDS011;54886;47.036;15.466;2023-06-19T07:27:32;15.07;;;8.45;;
68097;SDS011;54886;47.036;15.466;2023-06-19T07:29:58;13.05;;;8.00;;
68097;SDS011;54886;47.036;15.466;2023-06-19T07:32:23;15.70;;;8.88;;
68097;SDS011;54886;47.036;15.466;2023-06-19T07:34:48;11.77;;;8.20;;
68097;SDS011;54886;47.036;15.466;2023-06-19T07:37:14;15.65;;;9.70;;
68097;SDS011;54886;47.036;15.466;2023-06-19T07:39:43;13.68;;;9.15;;
68097;SDS011;54886;47.036;15.466;2023-06-19T07:42:15;15.18;;;8.65;;
68097;SDS011;54886;47.036;15.466;2023-06-19T07:44:41;16.45;;;9.63;;
68097;SDS011;54886;47.036;15.466;2023-06-19T07:47:07;13.52;;;8.55;;
68097;SDS011;54886;47.036;15.466;2023-06-19T07:49:33;12.75;;;8.80;;
68097;SDS011;54886;47.036;15.466;2023-06-19T07:51:58;14.93;;;8.98;;
68097;SDS011;54886;47.036;15.466;2023-06-19T07:54:24;18.05;;;9.38;;
68097;SDS011;54886;47.036;15.466;2023-06-19T07:56:49;15.88;;;8.85;;
68097;SDS011;54886;47.036;15.466;2023-06-19T07:59:15;13.13;;;8.73;;
68097;SDS011;54886;47.036;15.466;2023-06-19T08:01:41;16.05;;;8.98;;
68097;SDS011;54886;47.036;15.466;2023-06-19T08:04:07;13.45;;;8.45;;
68097;SDS011;54886;47.036;15.466;2023-06-19T08:06:32;12.32;;;8.77;;
68097;SDS011;54886;47.036;15.466;2023-06-19T08:08:58;13.98;;;9.02;;
68097;SDS011;54886;47.036;15.466;2023-06-19T08:11:23;12.38;;;8.38;;
68097;SDS011;54886;47.036;15.466;2023-06-19T08:13:49;14.23;;;8.95;;
68097;SDS011;54886;47.036;15.466;2023-06-19T08:16:14;12.50;;;8.95;;
68097;SDS011;54886;47.036;15.466;2023-06-19T08:18:39;15.02;;;8.88;;
68097;SDS011;54886;47.036;15.466;2023-06-19T08:21:05;16.45;;;8.90;;
68097;SDS011;54886;47.036;15.466;2023-06-19T08:23:30;13.50;;;8.38;;
68097;SDS011;54886;47.036;15.466;2023-06-19T08:25:56;11.75;;;8.55;;
68097;SDS011;54886;47.036;15.466;2023-06-19T08:28:21;18.63;;;8.27;;
68097;SDS011;54886;47.036;15.466;2023-06-19T08:30:46;13.00;;;8.52;;
68097;SDS011;54886;47.036;15.466;2023-06-19T08:33:13;12.63;;;8.00;;
68097;SDS011;54886;47.036;15.466;2023-06-19T08:35:38;11.10;;;8.27;;
68097;SDS011;54886;47.036;15.466;2023-06-19T08:38:04;10.68;;;7.93;;
68097;SDS011;54886;47.036;15.466;2023-06-19T08:40:29;12.38;;;8.05;;
68097;SDS011;54886;47.036;15.466;2023-06-19T08:42:55;11.43;;;8.45;;
68097;SDS011;54886;47.036;15.466;2023-06-19T08:45:21;13.05;;;7.80;;
68097;SDS011;54886;47.036;15.466;2023-06-19T08:47:47;14.45;;;8.18;;
68097;SDS011;54886;47.036;15.466;2023-06-19T08:50:13;12.70;;;7.88;;
68097;SDS011;54886;47.036;15.466;2023-06-19T08:52:39;12.05;;;7.65;;
68097;SDS011;54886;47.036;15.466;2023-06-19T08:55:04;11.93;;;7.70;;
68097;SDS011;54886;47.036;15.466;2023-06-19T08:57:34;11.57;;;8.25;;
68097;SDS011;54886;47.036;15.466;2023-06-19T09:00:00;11.55;;;7.75;;
68097;SDS011;54886;47.036;15.466;2023-06-19T09:02:36;13.07;;;8.02;;
68097;SDS011;54886;47.036;15.466;2023-06-19T09:05:09;10.57;;;7.47;;
68097;SDS011;54886;47.036;15.466;2023-06-19T09:07:38;12.60;;;8.13;;
68097;SDS011;54886;47.036;15.466;2023-06-19T09:10:17;12.15;;;8.15;;
68097;SDS011;54886;47.036;15.466;2023-06-19T09:12:43;10.20;;;7.55;;
68097;SDS011;54886;47.036;15.466;2023-06-19T09:15:33;12.90;;;7.97;;
68097;SDS011;54886;47.036;15.466;2023-06-19T09:18:03;10.90;;;7.50;;
68097;SDS011;54886;47.036;15.466;2023-06-19T09:20:30;12.27;;;7.88;;
68097;SDS011;54886;47.036;15.466;2023-06-19T09:22:58;10.25;;;7.22;;
68097;SDS011;54886;47.036;15.466;2023-06-19T09:25:24;14.23;;;7.80;;
68097;SDS011;54886;47.036;15.466;2023-06-19T09:27:51;12.98;;;7.80;;
68097;SDS011;54886;47.036;15.466;2023-06-19T09:30:18;14.18;;;7.95;;
68097;SDS011;54886;47.036;15.466;2023-06-19T09:32:43;9.75;;;7.22;;
68097;SDS011;54886;47.036;15.466;2023-06-19T09:35:08;11.55;;;7.72;;
68097;SDS011;54886;47.036;15.466;2023-06-19T09:37:34;11.18;;;7.90;;
68097;SDS011;54886;47.036;15.466;2023-06-19T09:42:38;10.35;;;7.30;;
68097;SDS011;54886;47.036;15.466;2023-06-19T09:45:05;11.48;;;8.10;;
68097;SDS011;54886;47.036;15.466;2023-06-19T09:47:39;10.10;;;7.20;;
68097;SDS011;54886;47.036;15.466;2023-06-19T09:50:08;12.80;;;8.00;;
68097;SDS011;54886;47.036;15.466;2023-06-19T09:52:37;10.05;;;7.40;;
68097;SDS011;54886;47.036;15.466;2023-06-19T09:55:04;10.63;;;7.18;;
68097;SDS011;54886;47.036;15.466;2023-06-19T09:57:31;14.55;;;7.78;;
68097;SDS011;54886;47.036;15.466;2023-06-19T10:02:27;9.45;;;7.13;;
68097;SDS011;54886;47.036;15.466;2023-06-19T10:04:53;9.68;;;7.03;;
68097;SDS011;54886;47.036;15.466;2023-06-19T10:07:24;9.73;;;7.30;;
68097;SDS011;54886;47.036;15.466;2023-06-19T10:12:34;10.95;;;7.28;;
68097;SDS011;54886;47.036;15.466;2023-06-19T10:15:15;10.32;;;7.03;;
68097;SDS011;54886;47.036;15.466;2023-06-19T10:17:45;10.07;;;7.20;;
68097;SDS011;54886;47.036;15.466;2023-06-19T10:25:44;14.88;;;7.53;;
68097;SDS011;54886;47.036;15.466;2023-06-19T10:28:18;9.18;;;6.75;;
68097;SDS011;54886;47.036;15.466;2023-06-19T10:30:44;10.98;;;7.15;;
68097;SDS011;54886;47.036;15.466;2023-06-19T10:33:09;10.00;;;7.15;;
68097;SDS011;54886;47.036;15.466;2023-06-19T10:35:38;11.48;;;7.35;;
68097;SDS011;54886;47.036;15.466;2023-06-19T10:38:05;10.75;;;7.30;;
68097;SDS011;54886;47.036;15.466;2023-06-19T10:40:31;9.50;;;6.93;;
68097;SDS011;54886;47.036;15.466;2023-06-19T10:42:56;10.82;;;6.90;;
68097;SDS011;54886;47.036;15.466;2023-06-19T10:45:22;11.18;;;7.38;;
68097;SDS011;54886;47.036;15.466;2023-06-19T10:47:53;11.57;;;7.10;;
68097;SDS011;54886;47.036;15.466;2023-06-19T10:50:19;9.60;;;7.00;;
68097;SDS011;54886;47.036;15.466;2023-06-19T10:52:45;10.57;;;7.40;;
68097;SDS011;54886;47.036;15.466;2023-06-19T10:55:11;9.00;;;6.68;;
68097;SDS011;54886;47.036;15.466;2023-06-19T10:57:38;11.30;;;6.50;;
68097;SDS011;54886;47.036;15.466;2023-06-19T11:00:05;12.13;;;6.82;;
68097;SDS011;54886;47.036;15.466;2023-06-19T11:02:38;12.88;;;7.03;;
68097;SDS011;54886;47.036;15.466;2023-06-19T11:05:05;8.70;;;6.55;;
68097;SDS011;54886;47.036;15.466;2023-06-19T11:07:31;10.25;;;6.95;;
68097;SDS011;54886;47.036;15.466;2023-06-19T11:09:57;10.88;;;7.32;;
68097;SDS011;54886;47.036;15.466;2023-06-19T11:12:23;9.55;;;7.07;;
68097;SDS011;54886;47.036;15.466;2023-06-19T11:14:49;12.90;;;7.53;;
68097;SDS011;54886;47.036;15.466;2023-06-19T11:17:15;10.68;;;7.00;;
68097;SDS011;54886;47.036;15.466;2023-06-19T11:19:41;12.77;;;7.60;;
68097;SDS011;54886;47.036;15.466;2023-06-19T11:22:08;9.10;;;7.05;;
68097;SDS011;54886;47.036;15.466;2023-06-19T11:24:34;11.55;;;6.85;;
68097;SDS011;54886;47.036;15.466;2023-06-19T11:26:59;9.82;;;7.15;;
68097;SDS011;54886;47.036;15.466;2023-06-19T11:29:26;11.07;;;7.50;;
68097;SDS011;54886;47.036;15.466;2023-06-19T11:32:04;10.50;;;7.55;;
68097;SDS011;54886;47.036;15.466;2023-06-19T11:34:34;10.38;;;7.22;;
68097;SDS011;54886;47.036;15.466;2023-06-19T11:37:22;9.23;;;7.28;;
68097;SDS011;54886;47.036;15.466;2023-06-19T11:39:47;10.88;;;7.30;;
68097;SDS011;54886;47.036;15.466;2023-06-19T11:42:14;11.52;;;7.38;;
68097;SDS011;54886;47.036;15.466;2023-06-19T11:44:59;10.02;;;7.38;;
68097;SDS011;54886;47.036;15.466;2023-06-19T11:47:31;9.52;;;7.47;;
68097;SDS011;54886;47.036;15.466;2023-06-19T11:49:57;10.90;;;7.38;;
68097;SDS011;54886;47.036;15.466;2023-06-19T11:52:25;11.02;;;7.47;;
68097;SDS011;54886;47.036;15.466;2023-06-19T11:54:50;12.20;;;7.90;;
68097;SDS011;54886;47.036;15.466;2023-06-19T11:57:16;10.50;;;7.35;;
68097;SDS011;54886;47.036;15.466;2023-06-19T11:59:42;10.95;;;7.03;;
68097;SDS011;54886;47.036;15.466;2023-06-19T12:02:08;10.45;;;7.30;;
68097;SDS011;54886;47.036;15.466;2023-06-19T12:04:33;10.43;;;7.70;;
68097;SDS011;54886;47.036;15.466;2023-06-19T12:06:59;10.07;;;7.00;;
68097;SDS011;54886;47.036;15.466;2023-06-19T12:09:25;11.13;;;7.32;;
68097;SDS011;54886;47.036;15.466;2023-06-19T12:11:50;9.48;;;7.07;;
68097;SDS011;54886;47.036;15.466;2023-06-19T12:14:16;10.10;;;7.30;;
68097;SDS011;54886;47.036;15.466;2023-06-19T12:16:41;10.55;;;7.35;;
68097;SDS011;54886;47.036;15.466;2023-06-19T12:19:06;10.68;;;7.40;;
68097;SDS011;54886;47.036;15.466;2023-06-19T12:21:32;9.25;;;7.47;;
68097;SDS011;54886;47.036;15.466;2023-06-19T12:23:57;10.13;;;7.70;;
68097;SDS011;54886;47.036;15.466;2023-06-19T12:26:22;12.20;;;7.28;;
68097;SDS011;54886;47.036;15.466;2023-06-19T12:28:50;10.48;;;7.50;;
68097;SDS011;54886;47.036;15.466;2023-06-19T12:31:16;13.10;;;7.70;;
68097;SDS011;54886;47.036;15.466;2023-06-19T12:33:42;8.67;;;7.13;;
68097;SDS011;54886;47.036;15.466;2023-06-19T12:36:12;10.40;;;7.53;;
68097;SDS011;54886;47.036;15.466;2023-06-19T12:38:39;10.13;;;7.70;;
68097;SDS011;54886;47.036;15.466;2023-06-19T12:41:05;11.68;;;7.15;;
68097;SDS011;54886;47.036;15.466;2023-06-19T12:43:30;10.80;;;7.22;;
68097;SDS011;54886;47.036;15.466;2023-06-19T12:45:58;10.77;;;7.43;;
68097;SDS011;54886;47.036;15.466;2023-06-19T12:48:24;10.95;;;7.78;;
68097;SDS011;54886;47.036;15.466;2023-06-19T12:50:50;9.70;;;7.47;;
68097;SDS011;54886;47.036;15.466;2023-06-19T12:53:16;11.48;;;7.80;;
68097;SDS011;54886;47.036;15.466;2023-06-19T12:55:41;10.45;;;7.70;;
68097;SDS011;54886;47.036;15.466;2023-06-19T13:00:34;11.00;;;7.80;;
68097;SDS011;54886;47.036;15.466;2023-06-19T13:03:00;11.63;;;7.68;;
68097;SDS011;54886;47.036;15.466;2023-06-19T13:05:25;18.92;;;8.40;;
68097;SDS011;54886;47.036;15.466;2023-06-19T13:07:51;10.50;;;8.27;;
68097;SDS011;54886;47.036;15.466;2023-06-19T13:10:16;10.48;;;8.10;;
68097;SDS011;54886;47.036;15.466;2023-06-19T13:12:41;11.68;;;8.70;;
68097;SDS011;54886;47.036;15.466;2023-06-19T13:15:07;10.95;;;8.20;;
68097;SDS011;54886;47.036;15.466;2023-06-19T13:17:33;10.85;;;8.15;;
68097;SDS011;54886;47.036;15.466;2023-06-19T13:19:58;10.38;;;7.70;;
68097;SDS011;54886;47.036;15.466;2023-06-19T13:22:24;12.52;;;7.82;;
68097;SDS011;54886;47.036;15.466;2023-06-19T13:24:50;11.85;;;8.48;;
68097;SDS011;54886;47.036;15.466;2023-06-19T13:27:16;10.57;;;8.00;;
68097;SDS011;54886;47.036;15.466;2023-06-19T13:29:43;13.27;;;8.05;;
68097;SDS011;54886;47.036;15.466;2023-06-19T13:34:33;9.93;;;7.57;;
68097;SDS011;54886;47.036;15.466;2023-06-19T13:36:59;10.88;;;8.00;;
68097;SDS011;54886;47.036;15.466;2023-06-19T13:39:24;11.93;;;8.23;;
68097;SDS011;54886;47.036;15.466;2023-06-19T13:41:51;9.68;;;7.38;;
68097;SDS011;54886;47.036;15.466;2023-06-19T13:44:17;11.52;;;7.63;;
68097;SDS011;54886;47.036;15.466;2023-06-19T13:46:44;10.20;;;7.32;;
68097;SDS011;54886;47.036;15.466;2023-06-19T13:49:09;11.43;;;7.50;;
68097;SDS011;54886;47.036;15.466;2023-06-19T13:51:35;10.88;;;8.18;;
68097;SDS011;54886;47.036;15.466;2023-06-19T13:54:01;11.77;;;7.55;;
68097;SDS011;54886;47.036;15.466;2023-06-19T13:56:29;10.30;;;7.40;;
68097;SDS011;54886;47.036;15.466;2023-06-19T13:58:55;10.80;;;7.85;;
68097;SDS011;54886;47.036;15.466;2023-06-19T14:01:20;11.18;;;7.40;;
68097;SDS011;54886;47.036;15.466;2023-06-19T14:03:45;10.35;;;7.43;;
68097;SDS011;54886;47.036;15.466;2023-06-19T14:06:11;15.25;;;7.80;;
68097;SDS011;54886;47.036;15.466;2023-06-19T14:08:37;10.35;;;8.07;;
68097;SDS011;54886;47.036;15.466;2023-06-19T14:11:04;10.82;;;7.55;;
68097;SDS011;54886;47.036;15.466;2023-06-19T14:13:30;11.05;;;8.00;;
68097;SDS011;54886;47.036;15.466;2023-06-19T14:15:55;11.60;;;7.95;;
68097;SDS011;54886;47.036;15.466;2023-06-19T14:18:21;10.63;;;7.30;;
68097;SDS011;54886;47.036;15.466;2023-06-19T14:20:46;11.25;;;7.85;;
68097;SDS011;54886;47.036;15.466;2023-06-19T14:23:12;16.15;;;7.47;;
68097;SDS011;54886;47.036;15.466;2023-06-19T14:25:37;11.70;;;7.72;;
68097;SDS011;54886;47.036;15.466;2023-06-19T14:28:03;11.10;;;7.65;;
68097;SDS011;54886;47.036;15.466;2023-06-19T14:30:29;11.00;;;7.90;;
68097;SDS011;54886;47.036;15.466;2023-06-19T14:32:55;9.73;;;7.40;;
68097;SDS011;54886;47.036;15.466;2023-06-19T14:35:20;11.82;;;7.60;;
68097;SDS011;54886;47.036;15.466;2023-06-19T14:37:45;11.43;;;7.53;;
68097;SDS011;54886;47.036;15.466;2023-06-19T14:40:11;12.63;;;7.40;;
68097;SDS011;54886;47.036;15.466;2023-06-19T14:42:36;10.18;;;7.68;;
68097;SDS011;54886;47.036;15.466;2023-06-19T14:45:02;9.65;;;7.22;;
68097;SDS011;54886;47.036;15.466;2023-06-19T14:47:27;10.40;;;7.35;;
68097;SDS011;54886;47.036;15.466;2023-06-19T14:49:52;13.60;;;7.60;;
68097;SDS011;54886;47.036;15.466;2023-06-19T14:52:21;10.82;;;7.45;;